sensor_id;sensor_type;location;lat;lon;timestamp;P1;durP1;ratioP1;P2;durP2;ratioP2
73507;SDS011;61749;55.002;73.386;2022-09-12T00:01:48;10.90;;;0.45;;
73507;SDS011;61749;55.002;73.386;2022-09-12T00:06:56;1.48;;;0.40;;
73507;SDS011;61749;55.002;73.386;2022-09-12T00:11:56;1.70;;;0.30;;
73507;SDS011;61749;55.002;73.386;2022-09-12T00:16:57;1.52;;;0.50;;
73507;SDS011;61749;55.002;73.386;2022-09-12T00:21:56;1.33;;;0.80;;
73507;SDS011;61749;55.002;73.386;2022-09-12T00:26:58;3.13;;;0.80;;
73507;SDS011;61749;55.002;73.386;2022-09-12T00:29:24;2.45;;;0.60;;
73507;SDS011;61749;55.002;73.386;2022-09-12T00:31:50;2.90;;;0.50;;
73507;SDS011;61749;55.002;73.386;2022-09-12T00:36:56;3.92;;;0.50;;
73507;SDS011;61749;55.002;73.386;2022-09-12T00:42:01;1.42;;;0.50;;
73507;SDS011;61749;55.002;73.386;2022-09-12T00:47:05;4.18;;;0.80;;
73507;SDS011;61749;55.002;73.386;2022-09-12T00:55:00;3.50;;;0.80;;
73507;SDS011;61749;55.002;73.386;2022-09-12T00:57:29;8.50;;;0.63;;
73507;SDS011;61749;55.002;73.386;2022-09-12T00:59:58;2.70;;;0.60;;
73507;SDS011;61749;55.002;73.386;2022-09-12T01:02:25;11.32;;;0.80;;
73507;SDS011;61749;55.002;73.386;2022-09-12T01:04:52;3.17;;;0.80;;
73507;SDS011;61749;55.002;73.386;2022-09-12T01:07:18;5.75;;;1.30;;
73507;SDS011;61749;55.002;73.386;2022-09-12T01:09:44;33.75;;;3.72;;
73507;SDS011;61749;55.002;73.386;2022-09-12T01:12:11;14.10;;;4.38;;
73507;SDS011;61749;55.002;73.386;2022-09-12T01:14:42;15.30;;;5.40;;
73507;SDS011;61749;55.002;73.386;2022-09-12T01:17:14;22.63;;;7.78;;
73507;SDS011;61749;55.002;73.386;2022-09-12T01:25:06;19.67;;;7.00;;
73507;SDS011;61749;55.002;73.386;2022-09-12T01:27:58;30.17;;;5.40;;
73507;SDS011;61749;55.002;73.386;2022-09-12T01:30:42;15.55;;;3.90;;
73507;SDS011;61749;55.002;73.386;2022-09-12T01:41:10;6.53;;;1.30;;
73507;SDS011;61749;55.002;73.386;2022-09-12T01:44:01;7.57;;;2.28;;
73507;SDS011;61749;55.002;73.386;2022-09-12T01:46:42;7.20;;;2.25;;
73507;SDS011;61749;55.002;73.386;2022-09-12T01:52:11;3.92;;;0.98;;
73507;SDS011;61749;55.002;73.386;2022-09-12T01:54:46;8.93;;;0.98;;
73507;SDS011;61749;55.002;73.386;2022-09-12T01:57:21;7.47;;;1.52;;
73507;SDS011;61749;55.002;73.386;2022-09-12T01:59:51;9.10;;;1.70;;
73507;SDS011;61749;55.002;73.386;2022-09-12T02:02:34;6.68;;;2.05;;
73507;SDS011;61749;55.002;73.386;2022-09-12T02:05:03;8.73;;;2.15;;
73507;SDS011;61749;55.002;73.386;2022-09-12T02:07:46;10.27;;;2.78;;
73507;SDS011;61749;55.002;73.386;2022-09-12T02:10:20;7.63;;;1.23;;
73507;SDS011;61749;55.002;73.386;2022-09-12T02:12:57;7.53;;;1.40;;
73507;SDS011;61749;55.002;73.386;2022-09-12T02:15:45;9.15;;;2.33;;
73507;SDS011;61749;55.002;73.386;2022-09-12T02:18:12;8.73;;;2.10;;
73507;SDS011;61749;55.002;73.386;2022-09-12T02:20:46;6.95;;;1.23;;
73507;SDS011;61749;55.002;73.386;2022-09-12T02:23:22;9.02;;;0.73;;
73507;SDS011;61749;55.002;73.386;2022-09-12T02:25:55;17.38;;;1.50;;
73507;SDS011;61749;55.002;73.386;2022-09-12T02:28:29;15.38;;;0.77;;
73507;SDS011;61749;55.002;73.386;2022-09-12T02:33:42;9.18;;;1.50;;
73507;SDS011;61749;55.002;73.386;2022-09-12T02:36:51;3.67;;;1.20;;
73507;SDS011;61749;55.002;73.386;2022-09-12T02:42:06;9.05;;;0.98;;
73507;SDS011;61749;55.002;73.386;2022-09-12T02:44:32;3.60;;;3.10;;
73507;SDS011;61749;55.002;73.386;2022-09-12T02:47:17;5.22;;;1.02;;
73507;SDS011;61749;55.002;73.386;2022-09-12T02:49:52;7.88;;;1.20;;
73507;SDS011;61749;55.002;73.386;2022-09-12T02:52:21;6.60;;;0.90;;
73507;SDS011;61749;55.002;73.386;2022-09-12T02:54:51;2.92;;;0.75;;
73507;SDS011;61749;55.002;73.386;2022-09-12T02:57:45;6.88;;;1.10;;
73507;SDS011;61749;55.002;73.386;2022-09-12T03:00:12;7.78;;;0.80;;
73507;SDS011;61749;55.002;73.386;2022-09-12T03:13:06;8.40;;;3.45;;
73507;SDS011;61749;55.002;73.386;2022-09-12T03:16:02;8.55;;;2.10;;
73507;SDS011;61749;55.002;73.386;2022-09-12T03:21:30;7.00;;;1.20;;
73507;SDS011;61749;55.002;73.386;2022-09-12T03:24:32;10.27;;;0.90;;
73507;SDS011;61749;55.002;73.386;2022-09-12T03:27:14;5.57;;;0.70;;
73507;SDS011;61749;55.002;73.386;2022-09-12T03:29:41;2.17;;;0.45;;
73507;SDS011;61749;55.002;73.386;2022-09-12T03:32:08;10.77;;;1.83;;
73507;SDS011;61749;55.002;73.386;2022-09-12T03:34:34;0.15;;;0.15;;
73507;SDS011;61749;55.002;73.386;2022-09-12T03:36:59;1.50;;;0.32;;
73507;SDS011;61749;55.002;73.386;2022-09-12T03:41:56;0.90;;;0.40;;
73507;SDS011;61749;55.002;73.386;2022-09-12T03:46:59;5.70;;;0.60;;
73507;SDS011;61749;55.002;73.386;2022-09-12T03:52:01;8.77;;;1.07;;
73507;SDS011;61749;55.002;73.386;2022-09-12T03:57:01;0.93;;;0.60;;
73507;SDS011;61749;55.002;73.386;2022-09-12T03:59:27;2.08;;;0.60;;
73507;SDS011;61749;55.002;73.386;2022-09-12T04:01:53;26.95;;;1.52;;
73507;SDS011;61749;55.002;73.386;2022-09-12T04:07:04;97.10;;;2.80;;
73507;SDS011;61749;55.002;73.386;2022-09-12T04:09:36;0.30;;;0.10;;
73507;SDS011;61749;55.002;73.386;2022-09-12T04:12:11;3.63;;;0.40;;
73507;SDS011;61749;55.002;73.386;2022-09-12T04:14:48;7.35;;;0.63;;
73507;SDS011;61749;55.002;73.386;2022-09-12T04:17:14;1.42;;;0.40;;
73507;SDS011;61749;55.002;73.386;2022-09-12T04:19:40;1.38;;;0.43;;
73507;SDS011;61749;55.002;73.386;2022-09-12T04:22:10;1.42;;;0.47;;
73507;SDS011;61749;55.002;73.386;2022-09-12T04:24:41;0.65;;;0.50;;
73507;SDS011;61749;55.002;73.386;2022-09-12T04:27:07;9.07;;;0.30;;
73507;SDS011;61749;55.002;73.386;2022-09-12T04:29:35;50.97;;;2.75;;
73507;SDS011;61749;55.002;73.386;2022-09-12T04:32:01;3.50;;;0.50;;
73507;SDS011;61749;55.002;73.386;2022-09-12T04:34:37;0.38;;;0.28;;
73507;SDS011;61749;55.002;73.386;2022-09-12T04:37:09;16.17;;;1.63;;
73507;SDS011;61749;55.002;73.386;2022-09-12T04:39:45;0.55;;;0.20;;
73507;SDS011;61749;55.002;73.386;2022-09-12T04:42:23;3.08;;;0.55;;
73507;SDS011;61749;55.002;73.386;2022-09-12T04:44:49;5.03;;;0.55;;
73507;SDS011;61749;55.002;73.386;2022-09-12T04:47:25;2.22;;;0.30;;
73507;SDS011;61749;55.002;73.386;2022-09-12T04:49:51;4.15;;;0.40;;
73507;SDS011;61749;55.002;73.386;2022-09-12T04:52:17;6.43;;;0.40;;
73507;SDS011;61749;55.002;73.386;2022-09-12T04:54:43;13.45;;;6.07;;
73507;SDS011;61749;55.002;73.386;2022-09-12T04:57:09;21.35;;;18.90;;
73507;SDS011;61749;55.002;73.386;2022-09-12T04:59:36;4.05;;;0.65;;
73507;SDS011;61749;55.002;73.386;2022-09-12T05:02:02;0.85;;;0.32;;
73507;SDS011;61749;55.002;73.386;2022-09-12T05:07:06;5.82;;;0.43;;
73507;SDS011;61749;55.002;73.386;2022-09-12T05:09:32;0.20;;;0.20;;
73507;SDS011;61749;55.002;73.386;2022-09-12T05:11:58;92.82;;;75.80;;
73507;SDS011;61749;55.002;73.386;2022-09-12T05:16:57;3.00;;;1.08;;
73507;SDS011;61749;55.002;73.386;2022-09-12T05:21:58;3.20;;;0.22;;
73507;SDS011;61749;55.002;73.386;2022-09-12T05:29:25;1.67;;;0.20;;
73507;SDS011;61749;55.002;73.386;2022-09-12T05:31:51;1.60;;;0.30;;
73507;SDS011;61749;55.002;73.386;2022-09-12T05:36:56;2.72;;;0.40;;
73507;SDS011;61749;55.002;73.386;2022-09-12T05:41:56;13.27;;;0.30;;
73507;SDS011;61749;55.002;73.386;2022-09-12T05:46:57;7.13;;;0.47;;
73507;SDS011;61749;55.002;73.386;2022-09-12T05:51:56;8.70;;;0.30;;
73507;SDS011;61749;55.002;73.386;2022-09-12T05:56:56;3.28;;;0.30;;
73507;SDS011;61749;55.002;73.386;2022-09-12T05:59:22;1.20;;;0.30;;
73507;SDS011;61749;55.002;73.386;2022-09-12T06:01:48;3.88;;;0.40;;
73507;SDS011;61749;55.002;73.386;2022-09-12T06:06:56;3.95;;;0.45;;
73507;SDS011;61749;55.002;73.386;2022-09-12T06:11:57;7.80;;;0.40;;
73507;SDS011;61749;55.002;73.386;2022-09-12T06:16:57;0.65;;;0.20;;
73507;SDS011;61749;55.002;73.386;2022-09-12T06:21:56;4.13;;;0.40;;
73507;SDS011;61749;55.002;73.386;2022-09-12T06:26:56;4.00;;;0.38;;
73507;SDS011;61749;55.002;73.386;2022-09-12T06:29:22;1.75;;;0.30;;
73507;SDS011;61749;55.002;73.386;2022-09-12T06:31:48;2.10;;;0.30;;
73507;SDS011;61749;55.002;73.386;2022-09-12T06:36:56;6.15;;;0.20;;
73507;SDS011;61749;55.002;73.386;2022-09-12T06:41:57;0.90;;;0.30;;
73507;SDS011;61749;55.002;73.386;2022-09-12T06:44:32;0.10;;;0.10;;
73507;SDS011;61749;55.002;73.386;2022-09-12T06:46:58;1.63;;;0.32;;
73507;SDS011;61749;55.002;73.386;2022-09-12T06:51:56;3.60;;;0.30;;
73507;SDS011;61749;55.002;73.386;2022-09-12T06:56:56;0.80;;;0.30;;
73507;SDS011;61749;55.002;73.386;2022-09-12T06:59:22;2.17;;;0.50;;
73507;SDS011;61749;55.002;73.386;2022-09-12T07:01:47;2.80;;;0.45;;
73507;SDS011;61749;55.002;73.386;2022-09-12T07:06:58;2.85;;;0.38;;
73507;SDS011;61749;55.002;73.386;2022-09-12T07:11:56;2.45;;;0.40;;
73507;SDS011;61749;55.002;73.386;2022-09-12T07:16:56;2.13;;;0.50;;
73507;SDS011;61749;55.002;73.386;2022-09-12T07:21:56;2.88;;;0.60;;
73507;SDS011;61749;55.002;73.386;2022-09-12T07:26:56;6.95;;;1.23;;
73507;SDS011;61749;55.002;73.386;2022-09-12T07:29:22;24.90;;;0.77;;
73507;SDS011;61749;55.002;73.386;2022-09-12T07:31:47;1.05;;;0.40;;
73507;SDS011;61749;55.002;73.386;2022-09-12T07:36:56;1.58;;;0.40;;
73507;SDS011;61749;55.002;73.386;2022-09-12T07:41:56;0.32;;;0.10;;
73507;SDS011;61749;55.002;73.386;2022-09-12T07:46:56;11.63;;;0.82;;
73507;SDS011;61749;55.002;73.386;2022-09-12T07:51:56;3.35;;;0.32;;
73507;SDS011;61749;55.002;73.386;2022-09-12T07:57:08;6.57;;;0.40;;
73507;SDS011;61749;55.002;73.386;2022-09-12T07:59:33;2.38;;;0.25;;
73507;SDS011;61749;55.002;73.386;2022-09-12T08:02:05;9.73;;;0.45;;
73507;SDS011;61749;55.002;73.386;2022-09-12T08:07:07;6.22;;;0.40;;
73507;SDS011;61749;55.002;73.386;2022-09-12T08:09:44;1.95;;;0.38;;
73507;SDS011;61749;55.002;73.386;2022-09-12T08:12:15;2.10;;;0.68;;
73507;SDS011;61749;55.002;73.386;2022-09-12T08:14:42;1.25;;;0.52;;
73507;SDS011;61749;55.002;73.386;2022-09-12T08:17:17;2.75;;;0.32;;
73507;SDS011;61749;55.002;73.386;2022-09-12T08:19:47;5.35;;;0.20;;
73507;SDS011;61749;55.002;73.386;2022-09-12T08:22:24;3.38;;;0.30;;
73507;SDS011;61749;55.002;73.386;2022-09-12T08:25:00;1.05;;;0.50;;
73507;SDS011;61749;55.002;73.386;2022-09-12T08:27:31;9.23;;;1.20;;
73507;SDS011;61749;55.002;73.386;2022-09-12T08:30:07;12.77;;;0.50;;
73507;SDS011;61749;55.002;73.386;2022-09-12T08:32:34;0.57;;;0.30;;
73507;SDS011;61749;55.002;73.386;2022-09-12T08:35:00;0.93;;;0.38;;
73507;SDS011;61749;55.002;73.386;2022-09-12T08:37:31;6.50;;;0.70;;
73507;SDS011;61749;55.002;73.386;2022-09-12T08:40:01;3.13;;;0.50;;
73507;SDS011;61749;55.002;73.386;2022-09-12T08:42:49;4.07;;;0.60;;
73507;SDS011;61749;55.002;73.386;2022-09-12T08:45:17;7.35;;;0.65;;
73507;SDS011;61749;55.002;73.386;2022-09-12T08:47:47;5.25;;;0.68;;
73507;SDS011;61749;55.002;73.386;2022-09-12T08:50:15;3.78;;;0.60;;
73507;SDS011;61749;55.002;73.386;2022-09-12T08:52:43;108.88;;;6.85;;
73507;SDS011;61749;55.002;73.386;2022-09-12T08:57:52;0.43;;;0.30;;
73507;SDS011;61749;55.002;73.386;2022-09-12T09:00:25;4.85;;;0.40;;
73507;SDS011;61749;55.002;73.386;2022-09-12T09:12:58;9.18;;;0.68;;
73507;SDS011;61749;55.002;73.386;2022-09-12T09:15:32;15.05;;;1.10;;
73507;SDS011;61749;55.002;73.386;2022-09-12T09:18:07;10.05;;;1.02;;
73507;SDS011;61749;55.002;73.386;2022-09-12T09:23:12;5.32;;;0.80;;
73507;SDS011;61749;55.002;73.386;2022-09-12T09:25:42;4.15;;;1.25;;
73507;SDS011;61749;55.002;73.386;2022-09-12T09:28:22;8.05;;;1.60;;
73507;SDS011;61749;55.002;73.386;2022-09-12T09:30:50;65.35;;;2.80;;
73507;SDS011;61749;55.002;73.386;2022-09-12T09:33:24;3.72;;;1.38;;
73507;SDS011;61749;55.002;73.386;2022-09-12T09:35:55;46.80;;;2.03;;
73507;SDS011;61749;55.002;73.386;2022-09-12T09:38:28;10.57;;;2.08;;
73507;SDS011;61749;55.002;73.386;2022-09-12T09:43:45;10.05;;;1.00;;
73507;SDS011;61749;55.002;73.386;2022-09-12T09:46:11;10.95;;;2.42;;
73507;SDS011;61749;55.002;73.386;2022-09-12T09:48:43;5.32;;;2.10;;
73507;SDS011;61749;55.002;73.386;2022-09-12T09:51:10;7.57;;;1.92;;
73507;SDS011;61749;55.002;73.386;2022-09-12T09:53:52;23.45;;;1.85;;
73507;SDS011;61749;55.002;73.386;2022-09-12T09:56:36;19.25;;;1.48;;
73507;SDS011;61749;55.002;73.386;2022-09-12T09:59:16;7.40;;;1.20;;
73507;SDS011;61749;55.002;73.386;2022-09-12T10:01:47;4.30;;;1.25;;
73507;SDS011;61749;55.002;73.386;2022-09-12T10:06:56;5.00;;;1.63;;
73507;SDS011;61749;55.002;73.386;2022-09-12T10:11:59;8.60;;;1.40;;
73507;SDS011;61749;55.002;73.386;2022-09-12T10:20:00;74.65;;;4.80;;
73507;SDS011;61749;55.002;73.386;2022-09-12T10:22:37;31.08;;;2.78;;
73507;SDS011;61749;55.002;73.386;2022-09-12T10:25:03;26.55;;;2.97;;
73507;SDS011;61749;55.002;73.386;2022-09-12T10:27:35;11.95;;;1.90;;
73507;SDS011;61749;55.002;73.386;2022-09-12T10:30:03;9.50;;;1.25;;
73507;SDS011;61749;55.002;73.386;2022-09-12T10:32:33;7.47;;;1.25;;
73507;SDS011;61749;55.002;73.386;2022-09-12T10:35:23;11.75;;;1.67;;
73507;SDS011;61749;55.002;73.386;2022-09-12T10:37:55;11.02;;;1.48;;
73507;SDS011;61749;55.002;73.386;2022-09-12T10:40:26;21.88;;;2.42;;
73507;SDS011;61749;55.002;73.386;2022-09-12T10:42:58;46.80;;;13.88;;
73507;SDS011;61749;55.002;73.386;2022-09-12T10:45:25;26.27;;;3.67;;
73507;SDS011;61749;55.002;73.386;2022-09-12T10:47:54;19.27;;;2.95;;
73507;SDS011;61749;55.002;73.386;2022-09-12T10:50:24;20.55;;;4.47;;
73507;SDS011;61749;55.002;73.386;2022-09-12T10:53:13;18.85;;;2.90;;
73507;SDS011;61749;55.002;73.386;2022-09-12T11:00:53;15.95;;;2.47;;
73507;SDS011;61749;55.002;73.386;2022-09-12T11:03:33;27.98;;;3.28;;
73507;SDS011;61749;55.002;73.386;2022-09-12T11:06:10;24.33;;;3.55;;
73507;SDS011;61749;55.002;73.386;2022-09-12T11:18:55;41.88;;;4.00;;
73507;SDS011;61749;55.002;73.386;2022-09-12T11:42:01;44.15;;;3.72;;
73507;SDS011;61749;55.002;73.386;2022-09-12T11:46:56;97.03;;;5.10;;
73507;SDS011;61749;55.002;73.386;2022-09-12T11:49:52;11.00;;;0.40;;
73507;SDS011;61749;55.002;73.386;2022-09-12T11:52:18;26.20;;;3.38;;
73507;SDS011;61749;55.002;73.386;2022-09-12T12:00:01;22.20;;;3.88;;
73507;SDS011;61749;55.002;73.386;2022-09-12T12:02:34;28.75;;;3.20;;
73507;SDS011;61749;55.002;73.386;2022-09-12T12:07:34;25.45;;;3.00;;
73507;SDS011;61749;55.002;73.386;2022-09-12T12:10:02;12.20;;;1.63;;
73507;SDS011;61749;55.002;73.386;2022-09-12T12:12:29;25.63;;;2.72;;
73507;SDS011;61749;55.002;73.386;2022-09-12T12:14:56;21.33;;;2.92;;
73507;SDS011;61749;55.002;73.386;2022-09-12T12:17:27;76.40;;;4.72;;
73507;SDS011;61749;55.002;73.386;2022-09-12T12:20:03;43.63;;;4.90;;
73507;SDS011;61749;55.002;73.386;2022-09-12T12:22:32;30.38;;;3.83;;
73507;SDS011;61749;55.002;73.386;2022-09-12T12:33:01;24.45;;;3.85;;
73507;SDS011;61749;55.002;73.386;2022-09-12T12:38:01;26.92;;;2.80;;
73507;SDS011;61749;55.002;73.386;2022-09-12T12:40:37;20.00;;;3.30;;
73507;SDS011;61749;55.002;73.386;2022-09-12T12:43:29;20.83;;;4.45;;
73507;SDS011;61749;55.002;73.386;2022-09-12T12:46:03;32.83;;;3.53;;
73507;SDS011;61749;55.002;73.386;2022-09-12T12:48:31;32.38;;;3.90;;
73507;SDS011;61749;55.002;73.386;2022-09-12T12:54:47;56.25;;;4.10;;
73507;SDS011;61749;55.002;73.386;2022-09-12T12:57:25;28.60;;;4.47;;
73507;SDS011;61749;55.002;73.386;2022-09-12T12:59:55;25.55;;;3.80;;
73507;SDS011;61749;55.002;73.386;2022-09-12T13:02:29;43.97;;;6.10;;
73507;SDS011;61749;55.002;73.386;2022-09-12T13:04:56;39.92;;;9.07;;
73507;SDS011;61749;55.002;73.386;2022-09-12T13:07:27;41.38;;;7.40;;
73507;SDS011;61749;55.002;73.386;2022-09-12T13:09:59;58.13;;;8.60;;
73507;SDS011;61749;55.002;73.386;2022-09-12T13:12:44;46.00;;;7.40;;
73507;SDS011;61749;55.002;73.386;2022-09-12T13:18:00;57.38;;;16.30;;
73507;SDS011;61749;55.002;73.386;2022-09-12T13:20:27;63.53;;;8.38;;
73507;SDS011;61749;55.002;73.386;2022-09-12T13:22:55;48.03;;;11.10;;
73507;SDS011;61749;55.002;73.386;2022-09-12T13:28:05;63.65;;;10.98;;
73507;SDS011;61749;55.002;73.386;2022-09-12T13:30:33;67.30;;;9.93;;
73507;SDS011;61749;55.002;73.386;2022-09-12T13:33:08;51.15;;;11.77;;
73507;SDS011;61749;55.002;73.386;2022-09-12T13:35:52;50.55;;;11.48;;
73507;SDS011;61749;55.002;73.386;2022-09-12T13:43:37;52.60;;;15.65;;
73507;SDS011;61749;55.002;73.386;2022-09-12T13:46:05;45.38;;;15.40;;
73507;SDS011;61749;55.002;73.386;2022-09-12T13:48:31;50.78;;;16.65;;
73507;SDS011;61749;55.002;73.386;2022-09-12T13:51:12;42.08;;;16.15;;
73507;SDS011;61749;55.002;73.386;2022-09-12T13:54:30;51.23;;;22.86;;
73507;SDS011;61749;55.002;73.386;2022-09-12T13:56:57;58.78;;;24.67;;
73507;SDS011;61749;55.002;73.386;2022-09-12T13:59:24;62.50;;;26.60;;
73507;SDS011;61749;55.002;73.386;2022-09-12T14:02:00;53.67;;;19.08;;
73507;SDS011;61749;55.002;73.386;2022-09-12T14:07:16;48.08;;;20.58;;
73507;SDS011;61749;55.002;73.386;2022-09-12T14:09:45;48.00;;;16.60;;
73507;SDS011;61749;55.002;73.386;2022-09-12T14:14:56;72.38;;;17.25;;
73507;SDS011;61749;55.002;73.386;2022-09-12T14:19:48;49.08;;;13.75;;
73507;SDS011;61749;55.002;73.386;2022-09-12T14:22:14;50.03;;;14.48;;
73507;SDS011;61749;55.002;73.386;2022-09-12T14:24:54;64.57;;;19.88;;
73507;SDS011;61749;55.002;73.386;2022-09-12T14:27:39;71.95;;;13.68;;
73507;SDS011;61749;55.002;73.386;2022-09-12T14:30:25;56.17;;;12.95;;
73507;SDS011;61749;55.002;73.386;2022-09-12T14:35:36;48.75;;;11.70;;
73507;SDS011;61749;55.002;73.386;2022-09-12T14:40:46;61.22;;;14.55;;
73507;SDS011;61749;55.002;73.386;2022-09-12T14:43:18;46.33;;;11.48;;
73507;SDS011;61749;55.002;73.386;2022-09-12T14:45:55;37.47;;;12.93;;
73507;SDS011;61749;55.002;73.386;2022-09-12T14:48:24;61.05;;;12.52;;
73507;SDS011;61749;55.002;73.386;2022-09-12T14:51:00;46.85;;;12.35;;
73507;SDS011;61749;55.002;73.386;2022-09-12T14:53:31;46.92;;;15.02;;
73507;SDS011;61749;55.002;73.386;2022-09-12T14:56:07;45.42;;;14.65;;
73507;SDS011;61749;55.002;73.386;2022-09-12T14:58:43;65.35;;;15.70;;
73507;SDS011;61749;55.002;73.386;2022-09-12T15:06:17;69.00;;;25.63;;
73507;SDS011;61749;55.002;73.386;2022-09-12T15:08:45;71.10;;;28.45;;
73507;SDS011;61749;55.002;73.386;2022-09-12T15:11:15;110.85;;;48.67;;
73507;SDS011;61749;55.002;73.386;2022-09-12T15:13:46;92.35;;;37.22;;
73507;SDS011;61749;55.002;73.386;2022-09-12T15:16:12;83.88;;;30.00;;
73507;SDS011;61749;55.002;73.386;2022-09-12T15:18:38;77.35;;;32.22;;
73507;SDS011;61749;55.002;73.386;2022-09-12T15:21:04;97.95;;;33.22;;
73507;SDS011;61749;55.002;73.386;2022-09-12T15:23:35;91.25;;;37.17;;
73507;SDS011;61749;55.002;73.386;2022-09-12T15:26:02;95.35;;;35.97;;
73507;SDS011;61749;55.002;73.386;2022-09-12T15:28:29;135.05;;;61.80;;
73507;SDS011;61749;55.002;73.386;2022-09-12T15:31:10;93.85;;;35.17;;
73507;SDS011;61749;55.002;73.386;2022-09-12T15:33:37;74.40;;;28.15;;
73507;SDS011;61749;55.002;73.386;2022-09-12T15:36:02;79.97;;;34.75;;
73507;SDS011;61749;55.002;73.386;2022-09-12T15:38:30;99.95;;;39.38;;
73507;SDS011;61749;55.002;73.386;2022-09-12T15:40:56;139.38;;;59.03;;
73507;SDS011;61749;55.002;73.386;2022-09-12T15:43:22;235.73;;;130.48;;
73507;SDS011;61749;55.002;73.386;2022-09-12T15:45:50;118.63;;;49.97;;
73507;SDS011;61749;55.002;73.386;2022-09-12T15:50:47;107.28;;;41.15;;
73507;SDS011;61749;55.002;73.386;2022-09-12T15:53:14;167.70;;;78.43;;
73507;SDS011;61749;55.002;73.386;2022-09-12T15:55:40;103.00;;;36.88;;
73507;SDS011;61749;55.002;73.386;2022-09-12T15:58:07;106.28;;;37.08;;
73507;SDS011;61749;55.002;73.386;2022-09-12T16:00:33;103.10;;;34.90;;
73507;SDS011;61749;55.002;73.386;2022-09-12T16:03:04;79.10;;;29.13;;
73507;SDS011;61749;55.002;73.386;2022-09-12T16:05:30;129.68;;;53.42;;
73507;SDS011;61749;55.002;73.386;2022-09-12T16:08:01;141.60;;;53.22;;
73507;SDS011;61749;55.002;73.386;2022-09-12T16:10:32;121.85;;;46.58;;
73507;SDS011;61749;55.002;73.386;2022-09-12T16:13:09;120.50;;;42.83;;
73507;SDS011;61749;55.002;73.386;2022-09-12T16:15:39;136.25;;;52.53;;
73507;SDS011;61749;55.002;73.386;2022-09-12T16:18:05;118.95;;;45.05;;
73507;SDS011;61749;55.002;73.386;2022-09-12T16:20:41;122.40;;;42.88;;
73507;SDS011;61749;55.002;73.386;2022-09-12T16:23:11;77.53;;;29.38;;
73507;SDS011;61749;55.002;73.386;2022-09-12T16:25:37;75.73;;;26.47;;
73507;SDS011;61749;55.002;73.386;2022-09-12T16:28:03;77.53;;;20.92;;
73507;SDS011;61749;55.002;73.386;2022-09-12T16:30:40;58.83;;;22.40;;
73507;SDS011;61749;55.002;73.386;2022-09-12T16:33:06;61.47;;;21.83;;
73507;SDS011;61749;55.002;73.386;2022-09-12T16:35:43;70.60;;;20.95;;
73507;SDS011;61749;55.002;73.386;2022-09-12T16:38:08;82.35;;;30.55;;
73507;SDS011;61749;55.002;73.386;2022-09-12T16:40:34;80.82;;;33.28;;
73507;SDS011;61749;55.002;73.386;2022-09-12T16:43:05;90.65;;;28.98;;
73507;SDS011;61749;55.002;73.386;2022-09-12T16:45:31;78.15;;;26.25;;
73507;SDS011;61749;55.002;73.386;2022-09-12T16:47:57;85.18;;;31.33;;
73507;SDS011;61749;55.002;73.386;2022-09-12T16:50:24;87.93;;;33.65;;
73507;SDS011;61749;55.002;73.386;2022-09-12T16:52:52;83.63;;;34.33;;
73507;SDS011;61749;55.002;73.386;2022-09-12T16:55:18;80.80;;;30.50;;
73507;SDS011;61749;55.002;73.386;2022-09-12T16:57:44;78.85;;;29.73;;
73507;SDS011;61749;55.002;73.386;2022-09-12T17:00:11;107.78;;;30.02;;
73507;SDS011;61749;55.002;73.386;2022-09-12T17:02:48;92.15;;;31.08;;
73507;SDS011;61749;55.002;73.386;2022-09-12T17:05:24;100.85;;;33.63;;
73507;SDS011;61749;55.002;73.386;2022-09-12T17:07:52;92.35;;;31.65;;
73507;SDS011;61749;55.002;73.386;2022-09-12T17:10:18;113.65;;;35.42;;
73507;SDS011;61749;55.002;73.386;2022-09-12T17:12:44;99.30;;;36.17;;
73507;SDS011;61749;55.002;73.386;2022-09-12T17:15:21;99.72;;;34.00;;
73507;SDS011;61749;55.002;73.386;2022-09-12T17:17:52;95.13;;;34.83;;
73507;SDS011;61749;55.002;73.386;2022-09-12T17:20:19;91.25;;;38.40;;
73507;SDS011;61749;55.002;73.386;2022-09-12T17:22:54;98.78;;;37.17;;
73507;SDS011;61749;55.002;73.386;2022-09-12T17:25:20;110.00;;;41.22;;
73507;SDS011;61749;55.002;73.386;2022-09-12T17:27:46;96.88;;;39.83;;
73507;SDS011;61749;55.002;73.386;2022-09-12T17:30:17;113.30;;;42.20;;
73507;SDS011;61749;55.002;73.386;2022-09-12T17:32:43;128.52;;;41.25;;
73507;SDS011;61749;55.002;73.386;2022-09-12T17:35:09;106.00;;;39.97;;
73507;SDS011;61749;55.002;73.386;2022-09-12T17:37:35;108.57;;;37.40;;
73507;SDS011;61749;55.002;73.386;2022-09-12T17:40:11;103.03;;;39.70;;
73507;SDS011;61749;55.002;73.386;2022-09-12T17:42:48;95.13;;;39.08;;
73507;SDS011;61749;55.002;73.386;2022-09-12T17:45:19;103.45;;;35.70;;
73507;SDS011;61749;55.002;73.386;2022-09-12T17:47:44;84.50;;;32.20;;
73507;SDS011;61749;55.002;73.386;2022-09-12T17:50:15;72.63;;;28.65;;
73507;SDS011;61749;55.002;73.386;2022-09-12T17:52:42;68.53;;;25.92;;
73507;SDS011;61749;55.002;73.386;2022-09-12T17:55:09;95.60;;;31.63;;
73507;SDS011;61749;55.002;73.386;2022-09-12T17:57:35;87.32;;;33.10;;
73507;SDS011;61749;55.002;73.386;2022-09-12T18:00:11;81.63;;;29.77;;
73507;SDS011;61749;55.002;73.386;2022-09-12T18:02:43;95.82;;;29.25;;
73507;SDS011;61749;55.002;73.386;2022-09-12T18:05:11;75.60;;;29.20;;
73507;SDS011;61749;55.002;73.386;2022-09-12T18:07:37;80.07;;;29.05;;
73507;SDS011;61749;55.002;73.386;2022-09-12T18:10:02;102.70;;;36.23;;
73507;SDS011;61749;55.002;73.386;2022-09-12T18:12:29;80.30;;;32.63;;
73507;SDS011;61749;55.002;73.386;2022-09-12T18:14:54;88.47;;;36.13;;
73507;SDS011;61749;55.002;73.386;2022-09-12T18:17:30;81.32;;;33.55;;
73507;SDS011;61749;55.002;73.386;2022-09-12T18:19:56;62.58;;;28.80;;
73507;SDS011;61749;55.002;73.386;2022-09-12T18:22:22;68.15;;;25.95;;
73507;SDS011;61749;55.002;73.386;2022-09-12T18:24:58;70.00;;;23.77;;
73507;SDS011;61749;55.002;73.386;2022-09-12T18:27:23;52.60;;;18.55;;
73507;SDS011;61749;55.002;73.386;2022-09-12T18:29:59;62.30;;;19.35;;
73507;SDS011;61749;55.002;73.386;2022-09-12T18:32:25;53.13;;;18.90;;
73507;SDS011;61749;55.002;73.386;2022-09-12T18:34:51;51.30;;;16.90;;
73507;SDS011;61749;55.002;73.386;2022-09-12T18:37:17;47.67;;;17.00;;
73507;SDS011;61749;55.002;73.386;2022-09-12T18:39:43;44.00;;;15.70;;
73507;SDS011;61749;55.002;73.386;2022-09-12T18:42:09;57.78;;;16.33;;
73507;SDS011;61749;55.002;73.386;2022-09-12T18:44:35;29.13;;;12.00;;
73507;SDS011;61749;55.002;73.386;2022-09-12T18:47:00;54.58;;;18.02;;
73507;SDS011;61749;55.002;73.386;2022-09-12T18:51:55;55.65;;;17.70;;
73507;SDS011;61749;55.002;73.386;2022-09-12T18:56:55;49.92;;;18.55;;
73507;SDS011;61749;55.002;73.386;2022-09-12T18:59:21;46.17;;;16.33;;
73507;SDS011;61749;55.002;73.386;2022-09-12T19:01:58;46.55;;;16.27;;
73507;SDS011;61749;55.002;73.386;2022-09-12T19:06:55;44.30;;;16.15;;
73507;SDS011;61749;55.002;73.386;2022-09-12T19:12:05;46.97;;;15.15;;
73507;SDS011;61749;55.002;73.386;2022-09-12T19:14:31;10.90;;;5.10;;
73507;SDS011;61749;55.002;73.386;2022-09-12T19:16:57;48.03;;;17.23;;
73507;SDS011;61749;55.002;73.386;2022-09-12T19:21:55;45.58;;;17.30;;
73507;SDS011;61749;55.002;73.386;2022-09-12T19:26:55;38.85;;;14.63;;
73507;SDS011;61749;55.002;73.386;2022-09-12T19:29:21;43.42;;;14.00;;